createdAt,value
2022-08-31T00:01:30.822Z,3.10
2022-08-31T00:04:03.162Z,3.00
2022-08-31T00:06:35.082Z,2.80
2022-08-31T00:09:04.020Z,3.00
2022-08-31T00:11:35.938Z,3.17
2022-08-31T00:14:09.877Z,3.10
2022-08-31T00:16:45.196Z,3.10
2022-08-31T00:19:13.402Z,3.10
2022-08-31T00:21:43.154Z,2.83
2022-08-31T00:24:14.296Z,3.33
2022-08-31T00:26:43.248Z,3.57
2022-08-31T00:29:11.865Z,3.37
2022-08-31T00:31:39.958Z,3.10
2022-08-31T00:34:08.470Z,3.23
2022-08-31T00:36:36.366Z,3.50
2022-08-31T00:39:07.319Z,3.53
2022-08-31T00:41:38.436Z,3.00
2022-08-31T00:44:09.201Z,3.50
2022-08-31T00:46:39.478Z,3.10
2022-08-31T00:49:10.471Z,3.00
2022-08-31T00:51:42.769Z,3.10
2022-08-31T00:54:15.657Z,3.40
2022-08-31T00:56:44.853Z,3.30
2022-08-31T00:59:14.008Z,3.40
2022-08-31T01:01:42.416Z,3.33
2022-08-31T01:04:11.234Z,3.37
2022-08-31T01:06:39.713Z,3.43
2022-08-31T01:09:09.929Z,3.20
2022-08-31T01:11:40.913Z,3.30
2022-08-31T01:14:10.899Z,2.90
2022-08-31T01:16:41.749Z,3.47
2022-08-31T01:19:18.759Z,3.20
2022-08-31T01:21:56.482Z,3.23
2022-08-31T01:24:27.575Z,3.43
2022-08-31T01:26:56.079Z,3.43
2022-08-31T01:29:23.985Z,3.40
2022-08-31T01:31:52.232Z,3.37
2022-08-31T01:34:20.143Z,3.13
2022-08-31T01:36:49.443Z,3.80
2022-08-31T01:39:17.312Z,3.10
2022-08-31T01:41:47.125Z,3.40
2022-08-31T01:44:17.901Z,3.43
2022-08-31T01:46:48.538Z,3.67
2022-08-31T01:49:18.407Z,3.27
2022-08-31T01:51:46.887Z,3.50
2022-08-31T01:54:15.006Z,3.90
2022-08-31T01:56:45.460Z,3.40
2022-08-31T01:59:17.131Z,3.40
2022-08-31T02:01:47.667Z,3.40
2022-08-31T02:04:17.858Z,3.60
2022-08-31T02:06:49.192Z,3.30
2022-08-31T02:09:17.601Z,3.37
2022-08-31T02:11:45.753Z,3.47
2022-08-31T02:14:15.847Z,3.60
2022-08-31T02:16:43.691Z,3.63
2022-08-31T02:19:11.732Z,3.50
2022-08-31T02:21:40.116Z,3.50
2022-08-31T02:24:08.772Z,3.20
2022-08-31T02:26:36.582Z,3.77
2022-08-31T02:29:04.790Z,3.57
2022-08-31T02:31:34.179Z,3.23
2022-08-31T02:34:03.022Z,3.60
2022-08-31T02:36:34.783Z,3.70
2022-08-31T02:39:04.002Z,3.80
2022-08-31T02:41:33.907Z,4.07
2022-08-31T02:44:01.802Z,3.83
2022-08-31T02:46:29.779Z,3.73
2022-08-31T02:48:59.105Z,3.87
2022-08-31T02:51:26.947Z,3.90
2022-08-31T02:53:54.968Z,3.80
2022-08-31T02:56:23.791Z,3.77
2022-08-31T02:58:55.067Z,3.80
2022-08-31T03:01:23.950Z,3.50
2022-08-31T03:03:52.402Z,4.10
2022-08-31T03:06:22.730Z,3.10
2022-08-31T03:08:53.186Z,3.70
2022-08-31T03:11:21.090Z,3.90
2022-08-31T03:13:49.198Z,3.90
2022-08-31T03:16:17.466Z,4.10
2022-08-31T03:18:46.126Z,4.03
2022-08-31T03:21:13.927Z,4.10
2022-08-31T03:23:43.603Z,4.03
2022-08-31T03:26:11.612Z,3.70
2022-08-31T03:28:39.894Z,3.87
2022-08-31T03:31:09.076Z,3.20
2022-08-31T03:33:37.090Z,4.20
2022-08-31T03:36:05.698Z,3.80
2022-08-31T03:38:34.122Z,3.70
2022-08-31T03:41:04.241Z,3.80
2022-08-31T03:43:32.083Z,4.00
2022-08-31T03:46:00.049Z,3.60
2022-08-31T03:48:28.088Z,3.73
2022-08-31T03:50:56.012Z,3.80
2022-08-31T03:53:24.123Z,4.20
2022-08-31T03:55:52.231Z,4.23
2022-08-31T03:58:21.462Z,3.70
2022-08-31T04:00:49.385Z,3.77
2022-08-31T04:03:17.422Z,4.10
2022-08-31T04:05:45.635Z,3.83
2022-08-31T04:08:13.530Z,3.87
2022-08-31T04:10:42.249Z,4.03
2022-08-31T04:13:10.158Z,3.73
2022-08-31T04:15:40.067Z,3.60
2022-08-31T04:18:08.096Z,4.10
2022-08-31T04:20:37.074Z,3.77
2022-08-31T04:23:05.438Z,3.73
2022-08-31T04:25:34.082Z,3.50
2022-08-31T04:28:02.170Z,3.80
2022-08-31T04:30:31.870Z,3.83
2022-08-31T04:33:02.117Z,4.00
2022-08-31T04:35:30.116Z,3.70
2022-08-31T04:37:58.301Z,4.17
2022-08-31T04:40:30.457Z,4.00
2022-08-31T04:43:00.091Z,3.40
2022-08-31T04:45:28.191Z,4.00
2022-08-31T04:47:56.448Z,4.23
2022-08-31T04:50:25.721Z,4.40
2022-08-31T04:53:03.695Z,4.60
2022-08-31T04:55:32.180Z,4.00
2022-08-31T04:58:00.131Z,4.40
2022-08-31T05:00:28.345Z,4.60
2022-08-31T05:02:56.453Z,4.27
2022-08-31T05:05:25.811Z,4.73
2022-08-31T05:07:53.982Z,4.30
2022-08-31T05:10:23.290Z,4.57
2022-08-31T05:12:52.037Z,4.87
2022-08-31T05:15:19.979Z,4.77
2022-08-31T05:17:47.861Z,4.73
2022-08-31T05:20:17.942Z,5.40
2022-08-31T05:22:50.395Z,5.30
2022-08-31T05:25:18.552Z,5.37
2022-08-31T05:27:46.998Z,6.13
2022-08-31T05:30:15.309Z,5.70
2022-08-31T05:32:43.884Z,6.07
2022-08-31T05:35:11.970Z,6.00
2022-08-31T05:37:40.416Z,5.57
2022-08-31T05:40:11.677Z,6.13
2022-08-31T05:42:39.571Z,6.37
2022-08-31T05:45:08.572Z,5.50
2022-08-31T05:47:36.494Z,6.03
2022-08-31T05:50:08.140Z,5.97
2022-08-31T05:52:39.027Z,5.80
2022-08-31T05:55:07.305Z,5.90
2022-08-31T05:57:36.978Z,5.40
2022-08-31T06:00:06.565Z,5.20
2022-08-31T06:02:35.093Z,5.47
2022-08-31T06:05:03.603Z,4.77
2022-08-31T06:07:31.667Z,4.93
2022-08-31T06:09:59.582Z,5.10
2022-08-31T06:12:27.687Z,4.77
2022-08-31T06:14:57.039Z,5.00
2022-08-31T06:17:26.594Z,5.00
2022-08-31T06:19:55.964Z,5.40
2022-08-31T06:22:23.907Z,4.70
2022-08-31T06:24:52.120Z,4.77
2022-08-31T06:27:20.528Z,4.37
2022-08-31T06:29:49.303Z,4.93
2022-08-31T06:32:19.964Z,3.97
2022-08-31T06:34:49.146Z,4.47
2022-08-31T06:37:18.540Z,4.20
2022-08-31T06:39:47.775Z,4.30
2022-08-31T06:42:15.798Z,4.30
2022-08-31T06:44:43.789Z,3.97
2022-08-31T06:47:11.652Z,5.00
2022-08-31T06:49:41.128Z,4.03
2022-08-31T06:52:09.211Z,4.40
2022-08-31T06:54:38.751Z,4.10
2022-08-31T06:57:06.991Z,4.00
2022-08-31T06:59:35.379Z,4.30
2022-08-31T07:02:03.797Z,4.40
2022-08-31T07:04:33.967Z,4.23
2022-08-31T07:07:04.009Z,4.00
2022-08-31T07:09:31.937Z,4.30
2022-08-31T07:11:59.873Z,4.83
2022-08-31T07:14:28.836Z,4.07
2022-08-31T07:16:58.149Z,3.90
2022-08-31T07:19:27.302Z,4.07
2022-08-31T07:21:57.582Z,4.97
2022-08-31T07:24:30.255Z,4.20
2022-08-31T07:27:02.426Z,3.60
2022-08-31T07:29:34.075Z,3.73
2022-08-31T07:32:02.471Z,3.83
2022-08-31T07:34:33.894Z,4.00
2022-08-31T07:37:21.951Z,4.00
2022-08-31T07:40:09.359Z,3.90
2022-08-31T07:42:40.723Z,3.60
2022-08-31T07:45:13.132Z,3.87
2022-08-31T07:47:45.354Z,3.60
2022-08-31T07:50:14.230Z,3.40
2022-08-31T07:52:48.420Z,3.50
2022-08-31T07:55:18.712Z,3.97
2022-08-31T07:57:47.203Z,3.53
2022-08-31T08:00:21.189Z,3.40
2022-08-31T08:02:52.964Z,3.67
2022-08-31T08:05:27.575Z,3.33
2022-08-31T08:08:00.200Z,3.47
2022-08-31T08:10:30.023Z,3.20
2022-08-31T08:13:05.016Z,3.37
2022-08-31T08:15:35.722Z,3.80
2022-08-31T08:18:04.516Z,3.90
2022-08-31T08:20:37.477Z,3.60
2022-08-31T08:23:15.064Z,3.70
2022-08-31T08:25:45.039Z,3.57
2022-08-31T08:31:06.658Z,3.53
2022-08-31T08:33:36.666Z,3.20
2022-08-31T08:36:08.876Z,3.43
2022-08-31T08:38:40.225Z,3.57
2022-08-31T08:41:15.960Z,3.70
2022-08-31T08:43:47.980Z,3.53
2022-08-31T08:47:38.231Z,3.60
2022-08-31T08:49:25.022Z,3.60
2022-08-31T08:51:57.231Z,3.60
2022-08-31T08:54:31.930Z,3.43
2022-08-31T08:57:05.248Z,3.90
2022-08-31T08:59:33.172Z,4.03
2022-08-31T09:02:05.089Z,3.77
2022-08-31T09:04:59.524Z,3.80
2022-08-31T09:07:45.207Z,3.70
2022-08-31T09:10:24.148Z,3.63
2022-08-31T09:13:08.254Z,3.73
2022-08-31T09:15:49.166Z,3.60
2022-08-31T09:18:31.759Z,3.57
2022-08-31T09:21:06.636Z,3.73
2022-08-31T09:23:41.127Z,4.17
2022-08-31T09:26:10.135Z,3.70
2022-08-31T09:28:48.326Z,3.30
2022-08-31T09:31:37.571Z,3.30
2022-08-31T09:34:14.417Z,3.50
2022-08-31T09:36:42.613Z,3.63
2022-08-31T09:39:32.999Z,3.43
2022-08-31T09:42:15.622Z,3.43
2022-08-31T09:44:49.263Z,3.93
2022-08-31T09:47:43.721Z,3.43
2022-08-31T09:50:13.734Z,3.53
2022-08-31T09:52:59.409Z,3.77
2022-08-31T09:55:28.892Z,3.70
2022-08-31T09:57:59.154Z,3.73
2022-08-31T10:00:38.921Z,3.90
2022-08-31T10:03:16.132Z,3.67
2022-08-31T10:05:44.538Z,3.40
2022-08-31T10:08:31.692Z,3.27
2022-08-31T10:11:11.407Z,3.33
2022-08-31T10:13:41.302Z,3.35
2022-08-31T10:16:18.289Z,3.00
2022-08-31T10:18:56.158Z,3.40
2022-08-31T10:21:31.552Z,3.47
2022-08-31T10:24:10.426Z,4.00
2022-08-31T10:26:46.529Z,4.85
2022-08-31T10:29:23.394Z,3.43
2022-08-31T10:31:58.651Z,3.78
2022-08-31T10:34:51.430Z,3.03
2022-08-31T10:37:24.972Z,3.87
2022-08-31T10:39:58.256Z,3.37
2022-08-31T10:42:32.534Z,4.17
2022-08-31T10:45:08.069Z,3.40
2022-08-31T10:47:45.065Z,3.50
2022-08-31T10:50:25.357Z,4.00
2022-08-31T10:53:04.252Z,3.10
2022-08-31T10:55:39.856Z,3.50
2022-08-31T10:58:19.180Z,3.20
2022-08-31T11:00:52.725Z,3.13
2022-08-31T11:03:41.703Z,3.07
2022-08-31T11:06:16.863Z,3.37
2022-08-31T11:08:50.326Z,3.10
2022-08-31T11:11:27.369Z,3.20
2022-08-31T11:14:08.012Z,3.28
2022-08-31T11:17:02.687Z,2.80
2022-08-31T11:19:54.535Z,3.13
2022-08-31T11:22:50.284Z,2.78
2022-08-31T11:25:37.080Z,3.08
2022-08-31T11:28:11.130Z,3.03
2022-08-31T11:30:51.381Z,3.10
2022-08-31T11:33:28.237Z,2.90
2022-08-31T11:36:07.551Z,3.08
2022-08-31T11:39:15.290Z,3.00
2022-08-31T11:41:46.632Z,3.30
2022-08-31T11:44:45.462Z,3.15
2022-08-31T11:47:35.568Z,3.10
2022-08-31T11:50:09.910Z,2.60
2022-08-31T11:52:48.337Z,3.13
2022-08-31T11:55:24.082Z,2.97
2022-08-31T11:58:20.173Z,2.78
2022-08-31T12:00:59.160Z,3.08
2022-08-31T12:03:52.650Z,2.80
2022-08-31T12:07:07.032Z,2.72
2022-08-31T12:10:03.274Z,3.35
2022-08-31T12:12:52.651Z,2.80
2022-08-31T12:15:32.866Z,2.72
2022-08-31T12:18:12.430Z,2.88
2022-08-31T12:21:11.996Z,3.00
2022-08-31T12:23:51.302Z,2.85
2022-08-31T12:26:54.980Z,3.15
2022-08-31T12:29:28.726Z,2.90
2022-08-31T12:32:31.707Z,2.75
2022-08-31T12:35:11.162Z,2.83
2022-08-31T12:37:46.210Z,3.00
2022-08-31T12:40:20.640Z,3.17
2022-08-31T12:43:06.614Z,3.00
2022-08-31T12:46:09.648Z,2.90
2022-08-31T12:48:53.910Z,3.00
2022-08-31T12:51:37.126Z,2.85
2022-08-31T12:54:47.791Z,3.17
2022-08-31T12:57:31.329Z,3.38
2022-08-31T13:00:06.333Z,3.03
2022-08-31T13:02:42.067Z,2.90
2022-08-31T13:05:24.402Z,3.10
2022-08-31T13:07:52.907Z,2.92
2022-08-31T13:10:32.164Z,3.03
2022-08-31T13:13:02.846Z,2.97
2022-08-31T13:15:38.597Z,2.80
2022-08-31T13:18:12.004Z,3.17
2022-08-31T13:20:44.185Z,3.53
2022-08-31T13:23:14.716Z,3.38
2022-08-31T13:25:43.312Z,2.97
2022-08-31T13:28:23.123Z,3.40
2022-08-31T13:31:02.834Z,3.03
2022-08-31T13:33:34.909Z,3.20
2022-08-31T13:36:09.780Z,2.97
2022-08-31T13:38:53.420Z,3.55
2022-08-31T13:41:28.306Z,3.10
2022-08-31T13:44:02.837Z,2.70
2022-08-31T13:46:43.016Z,4.38
2022-08-31T13:49:35.260Z,2.60
2022-08-31T13:52:07.902Z,2.60
2022-08-31T13:54:37.304Z,2.95
2022-08-31T13:57:20.680Z,2.88
2022-08-31T13:59:49.927Z,2.65
2022-08-31T14:02:36.944Z,2.53
2022-08-31T14:05:08.558Z,2.90
2022-08-31T14:07:55.965Z,2.90
2022-08-31T14:10:26.406Z,3.25
2022-08-31T14:12:57.700Z,2.92
2022-08-31T14:15:36.287Z,3.35
2022-08-31T14:18:25.692Z,2.88
2022-08-31T14:21:28.981Z,2.75
2022-08-31T14:24:02.499Z,2.72
2022-08-31T14:26:33.383Z,2.60
2022-08-31T14:29:03.621Z,2.80
2022-08-31T14:31:37.043Z,2.50
2022-08-31T14:34:20.083Z,2.50
2022-08-31T14:36:52.780Z,2.75
2022-08-31T14:39:24.251Z,2.67
2022-08-31T14:41:54.635Z,2.53
2022-08-31T14:44:25.455Z,2.55
2022-08-31T14:46:53.848Z,2.80
2022-08-31T14:49:21.799Z,2.78
2022-08-31T14:51:49.742Z,2.67
2022-08-31T14:54:17.993Z,3.30
2022-08-31T14:56:50.542Z,2.50
2022-08-31T14:59:21.217Z,2.55
2022-08-31T15:01:50.545Z,1.90
2022-08-31T15:04:21.606Z,2.28
2022-08-31T15:06:52.541Z,2.30
2022-08-31T15:09:20.607Z,2.20
2022-08-31T15:11:50.958Z,2.70
2022-08-31T15:14:18.950Z,2.90
2022-08-31T15:16:48.770Z,2.88
2022-08-31T15:19:17.962Z,3.15
2022-08-31T15:21:52.717Z,3.47
2022-08-31T15:24:26.699Z,3.20
2022-08-31T15:26:59.958Z,3.42
2022-08-31T15:29:30.276Z,3.40
2022-08-31T15:31:59.750Z,3.22
2022-08-31T15:34:31.382Z,3.20
2022-08-31T15:37:02.355Z,3.80
2022-08-31T15:39:32.796Z,3.60
2022-08-31T15:42:02.951Z,4.00
2022-08-31T15:44:30.894Z,3.70
2022-08-31T15:47:16.406Z,3.60
2022-08-31T15:49:44.610Z,4.55
2022-08-31T15:52:12.671Z,4.03
2022-08-31T15:54:42.039Z,4.38
2022-08-31T15:57:12.054Z,3.97
2022-08-31T15:59:43.177Z,4.00
2022-08-31T16:02:14.067Z,3.72
2022-08-31T16:04:43.332Z,3.78
2022-08-31T16:07:13.062Z,4.10
2022-08-31T16:09:44.594Z,4.00
2022-08-31T16:12:14.803Z,4.22
2022-08-31T16:14:45.163Z,4.10
2022-08-31T16:17:14.431Z,4.23
2022-08-31T16:19:42.910Z,4.25
2022-08-31T16:22:10.952Z,3.70
2022-08-31T16:24:39.583Z,4.13
2022-08-31T16:27:11.417Z,4.30
2022-08-31T16:29:41.701Z,4.80
2022-08-31T16:32:09.880Z,4.30
2022-08-31T16:34:39.643Z,4.25
2022-08-31T16:37:08.770Z,4.63
2022-08-31T16:39:38.759Z,4.00
2022-08-31T16:42:08.133Z,4.37
2022-08-31T16:44:36.619Z,4.38
2022-08-31T16:47:07.759Z,4.50
2022-08-31T16:49:36.635Z,4.40
2022-08-31T16:52:07.106Z,4.30
2022-08-31T16:54:40.636Z,4.60
2022-08-31T16:57:08.762Z,4.90
2022-08-31T16:59:37.424Z,4.93
2022-08-31T17:02:07.011Z,4.60
2022-08-31T17:04:51.711Z,4.50
2022-08-31T17:07:21.658Z,4.97
2022-08-31T17:09:49.681Z,4.70
2022-08-31T17:12:26.567Z,4.50
2022-08-31T17:14:54.471Z,4.90
2022-08-31T17:17:25.586Z,4.70
2022-08-31T17:19:55.610Z,4.80
2022-08-31T17:22:31.601Z,4.80
2022-08-31T17:25:04.380Z,4.90
2022-08-31T17:27:34.917Z,5.07
2022-08-31T17:30:07.124Z,5.30
2022-08-31T17:32:44.462Z,4.63
2022-08-31T17:35:18.103Z,4.80
2022-08-31T17:37:46.192Z,5.03
2022-08-31T17:40:14.477Z,5.03
2022-08-31T17:42:42.594Z,4.97
2022-08-31T17:45:11.550Z,5.80
2022-08-31T17:47:41.406Z,5.00
2022-08-31T17:50:10.254Z,6.00
2022-08-31T17:52:38.660Z,5.27
2022-08-31T17:55:07.448Z,5.63
2022-08-31T17:57:35.391Z,5.00
2022-08-31T18:00:05.106Z,4.70
2022-08-31T18:02:34.950Z,5.22
2022-08-31T18:05:09.400Z,5.70
2022-08-31T18:07:40.664Z,5.27
2022-08-31T18:10:10.206Z,4.80
2022-08-31T18:12:41.677Z,4.57
2022-08-31T18:15:11.515Z,4.80
2022-08-31T18:17:42.376Z,4.60
2022-08-31T18:20:12.945Z,4.80
2022-08-31T18:22:41.916Z,4.90
2022-08-31T18:25:11.217Z,4.77
2022-08-31T18:27:39.386Z,4.67
2022-08-31T18:30:09.260Z,4.40
2022-08-31T18:32:37.407Z,4.50
2022-08-31T18:35:14.171Z,4.13
2022-08-31T18:37:45.975Z,4.27
2022-08-31T18:40:31.363Z,4.47
2022-08-31T18:43:16.890Z,4.70
2022-08-31T18:45:50.252Z,4.20
2022-08-31T18:48:25.293Z,4.20
2022-08-31T18:50:58.966Z,3.80
2022-08-31T18:53:29.696Z,3.77
2022-08-31T18:56:00.099Z,4.20
2022-08-31T18:58:28.769Z,3.97
2022-08-31T19:00:58.809Z,4.00
2022-08-31T19:03:27.863Z,4.00
2022-08-31T19:05:57.728Z,4.13
2022-08-31T19:08:26.646Z,3.93
2022-08-31T19:10:58.026Z,3.80
2022-08-31T19:13:31.559Z,4.03
2022-08-31T19:16:10.750Z,3.63
2022-08-31T19:18:44.837Z,3.90
2022-08-31T19:21:17.155Z,3.57
2022-08-31T19:23:45.282Z,3.90
2022-08-31T19:26:19.508Z,3.87
2022-08-31T19:28:48.846Z,3.43
2022-08-31T19:31:20.535Z,3.40
2022-08-31T19:33:49.186Z,3.43
2022-08-31T19:36:18.771Z,3.43
2022-08-31T19:38:47.890Z,3.47
2022-08-31T19:41:17.839Z,4.17
2022-08-31T19:43:54.446Z,3.20
2022-08-31T19:46:32.885Z,3.60
2022-08-31T19:49:01.554Z,3.70
2022-08-31T19:51:31.803Z,3.50
2022-08-31T19:54:03.298Z,3.33
2022-08-31T19:56:31.570Z,3.40
2022-08-31T19:59:00.728Z,3.07
2022-08-31T20:01:33.785Z,3.60
2022-08-31T20:04:04.075Z,3.13
2022-08-31T20:06:33.599Z,3.40
2022-08-31T20:09:01.603Z,3.07
2022-08-31T20:11:31.163Z,3.27
2022-08-31T20:14:00.388Z,3.20
2022-08-31T20:16:33.684Z,3.20
2022-08-31T20:19:04.664Z,2.80
2022-08-31T20:21:39.108Z,3.10
2022-08-31T20:24:09.375Z,3.00
2022-08-31T20:26:47.143Z,2.97
2022-08-31T20:29:19.240Z,3.20
2022-08-31T20:31:49.966Z,3.10
2022-08-31T20:34:20.089Z,2.83
2022-08-31T20:36:58.473Z,3.10
2022-08-31T20:39:30.277Z,2.93
2022-08-31T20:42:00.175Z,2.70
2022-08-31T20:44:30.943Z,3.13
2022-08-31T20:47:19.732Z,2.90
2022-08-31T20:49:53.572Z,2.97
2022-08-31T20:52:24.726Z,2.80
2022-08-31T20:55:01.664Z,2.97
2022-08-31T20:57:30.695Z,2.53
2022-08-31T21:00:00.503Z,2.60
2022-08-31T21:02:29.180Z,2.90
2022-08-31T21:05:10.288Z,2.70
2022-08-31T21:07:47.831Z,2.77
2022-08-31T21:10:15.725Z,2.50
2022-08-31T21:12:47.095Z,2.70
2022-08-31T21:15:15.223Z,2.60
2022-08-31T21:17:43.092Z,2.73
2022-08-31T21:20:12.029Z,2.90
2022-08-31T21:22:39.981Z,4.03
2022-08-31T21:25:12.786Z,2.47
2022-08-31T21:27:40.927Z,2.57
2022-08-31T21:30:11.663Z,2.50
2022-08-31T21:32:40.557Z,2.70
2022-08-31T21:35:09.548Z,2.53
2022-08-31T21:37:37.407Z,2.30
2022-08-31T21:40:07.106Z,2.77
2022-08-31T21:42:36.315Z,2.50
2022-08-31T21:45:05.017Z,2.60
2022-08-31T21:47:34.402Z,2.40
2022-08-31T21:50:02.725Z,2.47
2022-08-31T21:52:30.988Z,2.50
2022-08-31T21:54:59.170Z,2.40
2022-08-31T21:57:27.099Z,2.50
2022-08-31T21:59:56.470Z,2.63
2022-08-31T22:02:24.492Z,2.40
2022-08-31T22:04:52.670Z,2.10
2022-08-31T22:07:20.557Z,2.40
2022-08-31T22:09:48.754Z,2.50
2022-08-31T22:12:18.360Z,2.67
2022-08-31T22:14:46.225Z,2.30
2022-08-31T22:17:17.875Z,2.53
2022-08-31T22:19:46.156Z,2.43
2022-08-31T22:22:14.400Z,2.80
2022-08-31T22:24:42.916Z,2.10
2022-08-31T22:27:12.554Z,2.30
2022-08-31T22:29:41.044Z,2.30
2022-08-31T22:32:13.277Z,2.43
2022-08-31T22:34:46.011Z,2.60
2022-08-31T22:37:14.239Z,2.03
2022-08-31T22:39:43.328Z,2.30
2022-08-31T22:42:11.858Z,2.10
2022-08-31T22:44:40.543Z,2.40
2022-08-31T22:47:08.707Z,2.13
2022-08-31T22:49:36.679Z,2.30
2022-08-31T22:52:07.315Z,2.30
2022-08-31T22:54:36.476Z,2.20
2022-08-31T22:57:04.967Z,2.30
2022-08-31T22:59:33.060Z,2.13
2022-08-31T23:02:03.856Z,2.63
2022-08-31T23:04:34.326Z,2.23
2022-08-31T23:07:03.769Z,2.43
2022-08-31T23:09:34.372Z,2.10
2022-08-31T23:12:04.478Z,2.20
2022-08-31T23:14:34.504Z,2.33
2022-08-31T23:17:07.890Z,2.20
2022-08-31T23:19:37.815Z,2.03
2022-08-31T23:22:09.430Z,2.50
2022-08-31T23:24:41.221Z,2.27
2022-08-31T23:27:10.683Z,1.80
2022-08-31T23:29:40.988Z,2.00
2022-08-31T23:32:12.061Z,1.90
2022-08-31T23:34:41.630Z,2.33
2022-08-31T23:37:10.889Z,2.33
2022-08-31T23:39:44.508Z,2.30
2022-08-31T23:42:13.847Z,2.30
2022-08-31T23:44:43.714Z,2.30
2022-08-31T23:47:13.538Z,2.27
2022-08-31T23:49:42.377Z,1.83
2022-08-31T23:52:11.901Z,2.43
2022-08-31T23:54:41.640Z,2.10
2022-08-31T23:57:14.455Z,2.53
